createdAt,value
2023-02-05T00:02:31.682Z,-3.84
2023-02-05T00:05:18.519Z,-3.77
2023-02-05T00:08:05.618Z,-3.61
2023-02-05T00:10:52.776Z,-3.61
2023-02-05T00:13:41.860Z,-3.59
2023-02-05T00:16:28.992Z,-3.56
2023-02-05T00:19:15.969Z,-3.50
2023-02-05T00:22:03.377Z,-3.47
2023-02-05T00:24:50.124Z,-3.45
2023-02-05T00:27:36.636Z,-3.39
2023-02-05T00:30:23.883Z,-3.28
2023-02-05T00:33:10.393Z,-3.26
2023-02-05T00:35:57.021Z,-3.24
2023-02-05T00:38:45.090Z,-3.18
2023-02-05T00:41:31.651Z,-3.20
2023-02-05T00:44:18.305Z,-3.14
2023-02-05T00:47:05.444Z,-3.07
2023-02-05T00:49:51.877Z,-3.00
2023-02-05T00:52:38.577Z,-2.92
2023-02-05T00:55:26.314Z,-2.91
2023-02-05T00:58:13.377Z,-2.90
2023-02-05T01:00:59.847Z,-2.95
2023-02-05T01:03:46.349Z,-2.91
2023-02-05T01:06:33.205Z,-2.89
2023-02-05T01:09:19.809Z,-2.84
2023-02-05T01:12:06.876Z,-2.78
2023-02-05T01:14:54.268Z,-2.82
2023-02-05T01:17:41.082Z,-2.79
2023-02-05T01:20:28.380Z,-2.81
2023-02-05T01:23:15.265Z,-2.77
2023-02-05T01:26:02.243Z,-2.74
2023-02-05T01:28:49.520Z,-2.74
2023-02-05T01:31:36.246Z,-2.72
2023-02-05T01:34:23.044Z,-2.72
2023-02-05T01:37:09.531Z,-2.72
2023-02-05T01:39:57.138Z,-2.71
2023-02-05T01:42:43.906Z,-2.71
2023-02-05T01:45:32.858Z,-2.70
2023-02-05T01:48:25.031Z,-2.69
2023-02-05T01:51:14.517Z,-2.67
2023-02-05T01:54:01.944Z,-2.67
2023-02-05T01:57:17.422Z,-2.65
2023-02-05T02:00:05.250Z,-2.64
2023-02-05T02:02:52.808Z,-2.62
2023-02-05T02:05:41.068Z,-2.62
2023-02-05T02:08:27.708Z,-2.61
2023-02-05T02:11:17.461Z,-2.60
2023-02-05T02:14:07.117Z,-2.55
2023-02-05T02:16:53.724Z,-2.55
2023-02-05T02:20:00.565Z,-2.60
2023-02-05T02:22:56.349Z,-2.59
2023-02-05T02:26:16.775Z,-2.55
2023-02-05T02:29:04.415Z,-2.57
2023-02-05T02:32:10.899Z,-2.55
2023-02-05T02:35:40.097Z,-2.53
2023-02-05T02:38:32.150Z,-2.49
2023-02-05T02:41:32.528Z,-2.48
2023-02-05T02:44:45.790Z,-2.44
2023-02-05T02:47:38.386Z,-2.46
2023-02-05T02:50:36.011Z,-2.50
2023-02-05T02:53:28.415Z,-2.47
2023-02-05T02:56:17.115Z,-2.45
2023-02-05T02:59:10.866Z,-2.42
2023-02-05T03:02:02.560Z,-2.38
2023-02-05T03:04:58.998Z,-2.36
2023-02-05T03:07:54.516Z,-2.38
2023-02-05T03:10:48.016Z,-2.33
2023-02-05T03:13:35.497Z,-2.29
2023-02-05T03:16:24.649Z,-2.31
2023-02-05T03:19:11.535Z,-2.28
2023-02-05T03:22:02.964Z,-2.26
2023-02-05T03:24:51.099Z,-2.29
2023-02-05T03:27:38.671Z,-2.29
2023-02-05T03:30:31.344Z,-2.27
2023-02-05T03:38:29.383Z,-2.32
2023-02-05T03:41:45.624Z,-2.34
2023-02-05T03:45:01.404Z,-2.35
2023-02-05T03:48:11.942Z,-2.31
2023-02-05T03:51:22.971Z,-2.41
2023-02-05T03:54:27.248Z,-2.39
2023-02-05T03:57:28.797Z,-2.35
2023-02-05T04:00:16.017Z,-2.37
2023-02-05T04:03:03.227Z,-2.42
2023-02-05T04:05:49.685Z,-2.37
2023-02-05T04:08:36.285Z,-2.39
2023-02-05T04:11:23.411Z,-2.39
2023-02-05T04:14:09.875Z,-2.38
2023-02-05T04:16:56.339Z,-2.41
2023-02-05T04:19:42.877Z,-2.42
2023-02-05T04:22:29.641Z,-2.43
2023-02-05T04:25:16.431Z,-2.43
2023-02-05T04:28:03.306Z,-2.49
2023-02-05T04:30:49.982Z,-2.44
2023-02-05T04:33:36.858Z,-2.44
2023-02-05T04:36:23.225Z,-2.42
2023-02-05T04:39:09.912Z,-2.47
2023-02-05T04:41:56.667Z,-2.51
2023-02-05T04:44:43.399Z,-2.51
2023-02-05T04:47:30.677Z,-2.56
2023-02-05T04:50:18.507Z,-2.56
2023-02-05T04:53:05.225Z,-2.58
2023-02-05T04:55:52.052Z,-2.55
2023-02-05T04:58:39.531Z,-2.54
2023-02-05T05:01:26.151Z,-2.55
2023-02-05T05:04:12.860Z,-2.51
2023-02-05T05:06:59.545Z,-2.55
2023-02-05T05:09:45.914Z,-2.52
2023-02-05T05:12:33.187Z,-2.58
2023-02-05T05:15:19.841Z,-2.58
2023-02-05T05:18:06.503Z,-2.61
2023-02-05T05:20:53.331Z,-2.65
2023-02-05T05:23:39.879Z,-2.59
2023-02-05T05:26:26.645Z,-2.59
2023-02-05T05:29:14.457Z,-2.61
2023-02-05T05:32:01.744Z,-2.65
2023-02-05T05:34:48.445Z,-2.66
2023-02-05T05:37:34.855Z,-2.59
2023-02-05T05:40:39.741Z,-2.56
2023-02-05T05:43:45.306Z,-2.57
2023-02-05T05:46:32.006Z,-2.52
2023-02-05T05:49:18.649Z,-2.52
2023-02-05T05:52:05.518Z,-2.51
2023-02-05T05:55:18.865Z,-2.50
2023-02-05T05:58:07.033Z,-2.41
2023-02-05T06:00:54.998Z,-2.41
2023-02-05T06:03:43.315Z,-2.41
2023-02-05T06:06:29.587Z,-2.35
2023-02-05T06:09:16.330Z,-2.34
2023-02-05T06:12:03.163Z,-2.37
2023-02-05T06:14:49.494Z,-2.36
2023-02-05T06:17:36.327Z,-2.35
2023-02-05T06:20:22.878Z,-2.39
2023-02-05T06:23:10.167Z,-2.40
2023-02-05T06:25:57.187Z,-2.40
2023-02-05T06:28:43.833Z,-2.37
2023-02-05T06:31:33.246Z,-2.32
2023-02-05T06:34:20.144Z,-2.37
2023-02-05T06:37:10.230Z,-2.36
2023-02-05T06:39:57.960Z,-2.41
2023-02-05T06:42:46.067Z,-2.41
2023-02-05T06:45:32.969Z,-2.38
2023-02-05T06:48:22.641Z,-2.33
2023-02-05T06:51:11.379Z,-2.31
2023-02-05T06:54:00.645Z,-2.28
2023-02-05T06:56:47.903Z,-2.24
2023-02-05T06:59:34.524Z,-2.22
2023-02-05T07:02:24.680Z,-2.23
2023-02-05T07:05:15.219Z,-2.15
2023-02-05T07:08:04.251Z,-2.08
2023-02-05T07:10:51.546Z,-2.09
2023-02-05T07:13:38.387Z,-2.02
2023-02-05T07:16:25.083Z,-2.04
2023-02-05T07:19:11.783Z,-2.03
2023-02-05T07:21:58.462Z,-1.97
2023-02-05T07:24:45.404Z,-1.92
2023-02-05T07:27:32.950Z,-1.93
2023-02-05T07:30:22.289Z,-1.85
2023-02-05T07:33:10.249Z,-1.81
2023-02-05T07:36:08.125Z,-1.75
2023-02-05T07:38:54.810Z,-1.61
2023-02-05T07:41:41.177Z,-1.50
2023-02-05T07:44:27.648Z,-1.39
2023-02-05T07:47:16.003Z,-1.23
2023-02-05T07:50:02.521Z,-1.07
2023-02-05T07:52:50.359Z,-0.93
2023-02-05T07:55:36.674Z,-0.85
2023-02-05T07:58:26.102Z,-0.72
2023-02-05T08:01:13.536Z,-0.49
2023-02-05T08:04:02.274Z,-0.20
2023-02-05T08:06:49.690Z,-0.02
2023-02-05T08:09:36.266Z,0.08
2023-02-05T08:12:23.009Z,0.38
2023-02-05T08:15:10.095Z,0.81
2023-02-05T08:17:56.476Z,1.48
2023-02-05T08:20:43.040Z,2.16
2023-02-05T08:23:29.622Z,2.77
2023-02-05T08:26:17.837Z,3.11
2023-02-05T08:29:04.841Z,3.65
2023-02-05T08:31:51.351Z,4.35
2023-02-05T08:34:45.552Z,4.58
2023-02-05T08:37:33.043Z,4.74
2023-02-05T08:40:20.450Z,4.52
2023-02-05T08:43:08.699Z,3.79
2023-02-05T08:45:55.294Z,3.18
2023-02-05T08:48:42.416Z,2.58
2023-02-05T08:51:30.627Z,2.14
2023-02-05T08:54:17.275Z,2.13
2023-02-05T08:57:05.928Z,2.41
2023-02-05T08:59:55.935Z,2.95
2023-02-05T09:02:43.357Z,3.41
2023-02-05T09:05:29.847Z,3.51
2023-02-05T09:08:16.634Z,3.09
2023-02-05T09:11:03.679Z,2.65
2023-02-05T09:13:54.328Z,2.34
2023-02-05T09:16:41.569Z,2.16
2023-02-05T09:19:28.416Z,1.98
2023-02-05T09:22:15.019Z,1.93
2023-02-05T09:25:03.606Z,1.95
2023-02-05T09:27:50.275Z,1.98
2023-02-05T09:30:39.169Z,1.97
2023-02-05T09:33:26.569Z,1.85
2023-02-05T09:36:18.873Z,1.23
2023-02-05T09:39:16.843Z,0.99
2023-02-05T09:42:35.073Z,0.82
2023-02-05T09:45:42.718Z,0.58
2023-02-05T09:48:49.648Z,0.29
2023-02-05T09:51:46.395Z,0.18
2023-02-05T09:54:38.735Z,0.11
2023-02-05T09:57:39.545Z,0.07
2023-02-05T10:00:30.737Z,0.04
2023-02-05T10:04:01.086Z,0.03
2023-02-05T10:06:54.595Z,0.07
2023-02-05T10:09:54.892Z,0.09
2023-02-05T10:13:06.404Z,0.07
2023-02-05T10:16:40.427Z,0.08
2023-02-05T10:20:03.280Z,0.09
2023-02-05T10:23:17.747Z,0.13
2023-02-05T10:26:12.365Z,0.05
2023-02-05T10:29:35.666Z,0.07
2023-02-05T10:32:24.629Z,0.05
2023-02-05T10:35:24.976Z,0.12
2023-02-05T10:38:21.289Z,0.21
2023-02-05T10:41:20.206Z,0.29
2023-02-05T10:44:22.349Z,0.30
2023-02-05T10:47:41.609Z,0.35
2023-02-05T10:50:47.724Z,0.45
2023-02-05T10:53:36.352Z,0.59
2023-02-05T10:56:25.370Z,0.62
2023-02-05T10:59:22.410Z,0.58
2023-02-05T11:02:09.888Z,0.62
2023-02-05T11:05:01.589Z,0.66
2023-02-05T11:07:50.969Z,0.64
2023-02-05T11:10:38.233Z,0.63
2023-02-05T11:13:25.155Z,0.71
2023-02-05T11:16:12.786Z,0.84
2023-02-05T11:19:01.455Z,0.90
2023-02-05T11:21:55.713Z,0.89
2023-02-05T11:24:42.684Z,0.99
2023-02-05T11:27:32.828Z,1.03
2023-02-05T11:30:55.883Z,1.00
2023-02-05T11:34:22.014Z,1.03
2023-02-05T11:38:02.331Z,1.03
2023-02-05T11:41:58.055Z,1.07
2023-02-05T11:45:45.171Z,1.12
2023-02-05T11:52:44.950Z,1.12
2023-02-05T11:56:56.337Z,1.00
2023-02-05T12:00:29.947Z,0.99
2023-02-05T12:04:11.783Z,0.89
2023-02-05T12:07:57.653Z,0.74
2023-02-05T12:12:07.048Z,0.66
2023-02-05T12:15:35.617Z,0.60
2023-02-05T12:19:55.112Z,0.60
2023-02-05T12:23:57.521Z,0.56
2023-02-05T12:30:31.741Z,0.54
2023-02-05T12:34:33.563Z,0.55
2023-02-05T12:38:51.827Z,0.61
2023-02-05T12:42:43.199Z,0.62
2023-02-05T12:51:32.876Z,0.66
2023-02-05T12:55:24.384Z,0.63
2023-02-05T12:58:54.052Z,0.57
2023-02-05T13:02:11.931Z,0.56
2023-02-05T13:09:53.534Z,0.51
2023-02-05T13:13:39.925Z,0.43
2023-02-05T13:17:42.001Z,0.41
2023-02-05T13:21:49.406Z,0.43
2023-02-05T13:26:05.148Z,0.41
2023-02-05T13:29:57.721Z,0.33
2023-02-05T13:33:02.997Z,0.29
2023-02-05T13:36:40.683Z,0.30
2023-02-05T13:40:42.273Z,0.21
2023-02-05T13:47:40.178Z,0.18
2023-02-05T13:50:55.376Z,0.20
2023-02-05T13:54:17.418Z,0.21
2023-02-05T13:57:41.707Z,0.16
2023-02-05T14:00:29.254Z,0.07
2023-02-05T14:03:31.772Z,0.04
2023-02-05T14:06:38.888Z,0.01
2023-02-05T14:09:37.756Z,0.01
2023-02-05T14:12:30.470Z,-0.04
2023-02-05T14:15:18.408Z,-0.02
2023-02-05T14:18:08.027Z,-0.02
2023-02-05T14:20:54.657Z,-0.06
2023-02-05T14:23:47.863Z,-0.09
2023-02-05T14:26:51.417Z,-0.13
2023-02-05T14:29:47.122Z,-0.17
2023-02-05T14:32:40.120Z,-0.12
2023-02-05T14:35:33.311Z,-0.10
2023-02-05T14:38:31.252Z,-0.09
2023-02-05T14:41:29.118Z,-0.09
2023-02-05T14:44:23.804Z,-0.06
2023-02-05T14:47:27.488Z,-0.02
2023-02-05T14:50:28.438Z,-0.04
2023-02-05T14:53:30.265Z,-0.09
2023-02-05T14:56:40.809Z,-0.09
2023-02-05T14:59:38.492Z,-0.15
2023-02-05T15:02:59.151Z,-0.17
2023-02-05T15:05:50.698Z,-0.30
2023-02-05T15:08:49.306Z,-0.35
2023-02-05T15:12:28.289Z,-0.34
2023-02-05T15:15:35.745Z,-0.42
2023-02-05T15:18:33.131Z,-0.50
2023-02-05T15:21:26.068Z,-0.52
2023-02-05T15:24:24.792Z,-0.61
2023-02-05T15:27:23.627Z,-0.70
2023-02-05T15:30:18.473Z,-0.71
2023-02-05T15:33:30.061Z,-0.67
2023-02-05T15:36:43.768Z,-0.71
2023-02-05T15:39:58.497Z,-0.75
2023-02-05T15:42:51.898Z,-0.80
2023-02-05T15:45:44.971Z,-0.77
2023-02-05T15:48:34.775Z,-0.77
2023-02-05T15:51:28.132Z,-0.71
2023-02-05T15:54:21.353Z,-0.71
2023-02-05T15:57:16.280Z,-0.73
2023-02-05T16:00:07.975Z,-0.72
2023-02-05T16:02:57.875Z,-0.76
2023-02-05T16:05:52.960Z,-0.85
2023-02-05T16:08:47.416Z,-0.85
2023-02-05T16:11:35.952Z,-0.89
2023-02-05T16:14:33.734Z,-0.89
2023-02-05T16:17:28.762Z,-0.89
2023-02-05T16:20:32.466Z,-0.92
2023-02-05T16:23:38.147Z,-0.93
2023-02-05T16:26:28.947Z,-0.92
2023-02-05T16:29:36.121Z,-0.88
2023-02-05T16:32:35.736Z,-0.92
2023-02-05T16:35:27.217Z,-0.88
2023-02-05T16:38:20.842Z,-0.92
2023-02-05T16:41:25.944Z,-0.88
2023-02-05T16:44:32.900Z,-0.92
2023-02-05T16:47:20.695Z,-0.93
2023-02-05T16:50:33.163Z,-0.94
2023-02-05T16:53:26.867Z,-0.95
2023-02-05T16:56:27.197Z,-0.94
2023-02-05T16:59:23.340Z,-0.94
2023-02-05T17:02:29.543Z,-0.94
2023-02-05T17:05:28.017Z,-0.92
2023-02-05T17:08:15.072Z,-0.90
2023-02-05T17:11:06.928Z,-0.91
2023-02-05T17:14:12.578Z,-0.93
2023-02-05T17:17:04.610Z,-0.90
2023-02-05T17:20:11.798Z,-0.88
2023-02-05T17:22:59.359Z,-0.84
2023-02-05T17:25:56.081Z,-0.84
2023-02-05T17:28:50.295Z,-0.83
2023-02-05T17:31:39.355Z,-0.85
2023-02-05T17:34:27.122Z,-0.83
2023-02-05T17:37:15.675Z,-0.80
2023-02-05T17:40:02.987Z,-0.83
2023-02-05T17:42:50.280Z,-0.83
2023-02-05T17:45:41.194Z,-0.88
2023-02-05T17:48:28.277Z,-0.91
2023-02-05T17:51:20.744Z,-0.94
2023-02-05T17:54:34.226Z,-0.93
2023-02-05T17:57:22.748Z,-0.92
2023-02-05T18:00:25.296Z,-0.90
2023-02-05T18:03:12.598Z,-0.88
2023-02-05T18:06:00.648Z,-0.88
2023-02-05T18:08:47.944Z,-0.89
2023-02-05T18:11:35.685Z,-0.89
2023-02-05T18:14:23.960Z,-0.92
2023-02-05T18:17:11.487Z,-0.98
2023-02-05T18:19:58.768Z,-1.04
2023-02-05T18:22:49.952Z,-1.09
2023-02-05T18:25:39.483Z,-1.18
2023-02-05T18:28:28.626Z,-1.28
2023-02-05T18:31:16.023Z,-1.40
2023-02-05T18:34:07.392Z,-1.52
2023-02-05T18:36:55.050Z,-1.64
2023-02-05T18:39:43.780Z,-1.74
2023-02-05T18:42:30.937Z,-1.87
2023-02-05T18:45:19.198Z,-1.94
2023-02-05T18:48:06.748Z,-2.02
2023-02-05T18:50:54.808Z,-2.10
2023-02-05T18:53:44.880Z,-2.17
2023-02-05T18:56:32.509Z,-2.25
2023-02-05T18:59:21.498Z,-2.31
2023-02-05T19:02:10.929Z,-2.37
2023-02-05T19:04:58.382Z,-2.43
2023-02-05T19:07:48.235Z,-2.51
2023-02-05T19:10:37.464Z,-2.57
2023-02-05T19:13:25.158Z,-2.61
2023-02-05T19:16:18.413Z,-2.65
2023-02-05T19:19:07.486Z,-2.71
2023-02-05T19:22:00.248Z,-2.77
2023-02-05T19:24:48.419Z,-2.83
2023-02-05T19:27:36.103Z,-2.87
2023-02-05T19:30:24.169Z,-2.93
2023-02-05T19:33:14.895Z,-3.02
2023-02-05T19:36:04.647Z,-3.10
2023-02-05T19:38:52.952Z,-3.17
2023-02-05T19:41:41.847Z,-3.22
2023-02-05T19:44:31.229Z,-3.25
2023-02-05T19:47:18.685Z,-3.30
2023-02-05T19:50:06.055Z,-3.35
2023-02-05T19:52:53.732Z,-3.40
2023-02-05T19:55:40.505Z,-3.45
2023-02-05T19:58:27.577Z,-3.52
2023-02-05T20:01:15.796Z,-3.58
2023-02-05T20:04:09.629Z,-3.63
2023-02-05T20:06:59.914Z,-3.66
2023-02-05T20:09:48.969Z,-3.69
2023-02-05T20:12:35.330Z,-3.73
2023-02-05T20:15:22.052Z,-3.78
2023-02-05T20:18:08.573Z,-3.81
2023-02-05T20:20:57.951Z,-3.82
2023-02-05T20:23:44.853Z,-3.82
2023-02-05T20:26:31.855Z,-3.85
2023-02-05T20:29:36.946Z,-3.86
2023-02-05T20:32:23.485Z,-3.90
2023-02-05T20:35:09.833Z,-3.93
2023-02-05T20:37:56.303Z,-3.97
2023-02-05T20:40:42.886Z,-3.95
2023-02-05T20:43:29.448Z,-3.86
2023-02-05T20:46:16.344Z,-3.80
2023-02-05T20:49:03.549Z,-3.82
2023-02-05T20:51:50.301Z,-3.88
2023-02-05T20:54:36.974Z,-3.92
2023-02-05T20:57:23.184Z,-3.97
2023-02-05T21:00:11.387Z,-4.01
2023-02-05T21:02:57.904Z,-4.04
2023-02-05T21:05:44.756Z,-4.08
2023-02-05T21:08:32.905Z,-4.10
2023-02-05T21:11:21.092Z,-4.15
2023-02-05T21:14:08.446Z,-4.19
2023-02-05T21:16:54.772Z,-4.21
2023-02-05T21:19:41.474Z,-4.24
2023-02-05T21:22:28.961Z,-4.25
2023-02-05T21:25:15.217Z,-4.23
2023-02-05T21:28:01.826Z,-4.25
2023-02-05T21:30:51.252Z,-4.24
2023-02-05T21:33:37.778Z,-4.26
2023-02-05T21:36:25.047Z,-4.28
2023-02-05T21:39:17.656Z,-4.28
2023-02-05T21:42:03.958Z,-4.32
2023-02-05T21:44:53.731Z,-4.34
2023-02-05T21:47:40.343Z,-4.35
2023-02-05T21:50:27.025Z,-4.38
2023-02-05T21:56:30.644Z,-4.41
2023-02-05T21:59:17.238Z,-4.40
2023-02-05T22:02:03.818Z,-4.42
2023-02-05T22:04:50.466Z,-4.43
2023-02-05T22:07:37.329Z,-4.45
2023-02-05T22:10:23.486Z,-4.47
2023-02-05T22:13:16.215Z,-4.49
2023-02-05T22:16:05.425Z,-4.51
2023-02-05T22:18:53.469Z,-4.54
2023-02-05T22:21:42.418Z,-4.59
2023-02-05T22:24:28.968Z,-4.61
2023-02-05T22:27:15.659Z,-4.67
2023-02-05T22:30:02.297Z,-4.71
2023-02-05T22:32:48.686Z,-4.74
2023-02-05T22:35:35.135Z,-4.74
2023-02-05T22:38:21.546Z,-4.72
2023-02-05T22:41:16.712Z,-4.71
2023-02-05T22:44:04.978Z,-4.68
2023-02-05T22:46:52.929Z,-4.72
2023-02-05T22:49:39.479Z,-4.72
2023-02-05T22:52:26.254Z,-4.75
2023-02-05T22:55:12.850Z,-4.78
2023-02-05T22:57:59.609Z,-4.83
2023-02-05T23:00:46.386Z,-4.87
2023-02-05T23:03:34.562Z,-4.94
2023-02-05T23:06:23.901Z,-4.96
2023-02-05T23:09:16.443Z,-4.96
2023-02-05T23:12:03.304Z,-4.95
2023-02-05T23:14:49.910Z,-4.93
2023-02-05T23:17:36.177Z,-4.90
2023-02-05T23:20:22.761Z,-4.89
2023-02-05T23:23:09.392Z,-4.90
2023-02-05T23:25:56.177Z,-4.93
2023-02-05T23:28:42.988Z,-4.95
2023-02-05T23:31:30.325Z,-4.97
2023-02-05T23:34:16.927Z,-4.98
2023-02-05T23:37:03.839Z,-4.99
2023-02-05T23:39:52.489Z,-5.03
2023-02-05T23:42:39.108Z,-5.02
2023-02-05T23:45:25.413Z,-4.98
2023-02-05T23:48:12.478Z,-4.96
2023-02-05T23:50:59.232Z,-4.94
2023-02-05T23:53:45.807Z,-4.93
2023-02-05T23:56:32.325Z,-4.96
2023-02-05T23:59:18.979Z,-4.98
